Southern Sonoma County Latest

20 Stations

15 Minute Data
as of 9/6/26 4:09 PM PDT
Station Date Time Temp (°F) RH (%) Dew Pt (°F) Wind Spd (mph) Wind Dir (°) Wind Gust (mph) Latest Rain (In) Daily Rain (In) Daily Min Temp (°F) Daily Max Temp (°F)
Upper Rincon Valley 9/6/26 1600 77.1   1.8 34   1 46.7   0.5 3.2   0.5 S | 182 7.6   1.7 0.00 0.01 47.0   2.0 77.7   0.0
Lower Bennett Valley 9/6/26 1600 76.0   1.7 37   2 48.0   0.3 7.2   0.0 S | 191 12.7   2.4 0.00 0.00 40.0   0.9 78.1   0.0
Kenwood (Wildwood) 9/6/26 1600 77.6   0.4 32   1 45.7   0.2 5.0   1.2 NNW | 345 10.8   1.6 0.00 0.00 43.2   1.9 79.4   1.0
Crane Creek (Ranch 62) 9/6/26 1600 76.0   2.7 36   2 47.2   1.1 5.4   4.0 SSW | 206 11.8   5.4 0.00 0.00 45.4   2.1 80.2   0.7
Rohnert Park-West (Stony Point) 9/6/26 1600 75.2   2.7 49   3 54.9   4.2 7.2   3.9 SW | 217 14.3   3.5 0.00 0.00 42.5   1.4 76.4   0.9
Rice-Spivak Vineyard 9/6/26 1600 73.8   0.5 - - - - - - - 38.6   1.1 76.9   1.6
Cartograph Wines Base 9/6/26 1600 72.4   1.0 54   2 54.8   1.8 9.1   0.5 SSW | 208 18.9   1.2 0.00 0.00 46.6   1.9 74.7   0.7
Cartograph Wines Remote 9/6/26 1600 71.3   1.0 - - - - - - - 45.1   0.6 73.4   3.4
Penngrove (Asellus) 9/6/26 1600 74.7   1.4 43   1 50.7   1.9 7.1   1.7 S | 182 12.6   3.2 0.00 0.00 43.8   0.6 76.5   3.2
Sonoma Valley (Bedrock) 9/6/26 1600 78.3   0.1 32   1 45.8   0.7 - - - 0.00 0.00 41.0   3.3 80.2   0.1
Sonoma-West (Arnold) 9/6/26 1600 77.8   0.3 33   1 46.6   0.7 8.6   0.1 SW | 231 17.4   1.2 0.00 0.00 41.3   3.0 80.3   1.6
Sonoma Valley HS 9/6/26 1600 76.6   1.6 39   0 50.0   1.6 4.8   0.6 WSW | 241 11.3   0.4 0.00 0.00 44.4   1.9 79.1   2.0
Sonoma East (Bundschu01) 9/6/26 1600 77.9   0.7 32   0 46.1   0.7 7.1   1.7 WSW | 239 13.2   4.6 0.00 0.00 41.2   2.3 80.1   0.9
Sonoma-SE (Napoli) 9/6/26 1600 78.5   1.3 30   0 44.7   1.4 8.1   0.2 WSW | 248 14.2   0.3 0.00 0.00 41.6   1.8 81.5   1.2
Schellville (Sasaki) 2/7/26 1900 53.4   2.2 88   10 49.9   1.0 3.3   1.8 SW | 225 5.8   4.0 0.00 0.00 47.0   0.8 62.8   8.4
Petaluma (Ranch 10) 9/6/26 1600 76.4   0.0 38   1 48.9   0.5 4.9   0.1 W | 270 9.9   1.9 0.00 0.00 41.7   3.7 77.8   2.2
Carneros (Ranch 71) 9/6/26 1600 76.9   0.6 33   0 45.7   0.3 10.6   2.1 WSW | 255 15.6   3.6 0.00 0.00 51.2   1.0 77.9   0.9
Ricci Vineyards (Carneros) 9/6/26 1600 78.5   0.8 31   0 45.3   0.9 8.0   2.4 W | 264 14.6   1.1 0.00 0.00 43.1   1.4 80.0   1.7
Carneros Upper (Ranch 81) 9/6/26 1600 77.8   0.2 29   3 43.1   2.7 11.8   1.7 WSW | 250 18.0   2.6 - - 51.8   0.6 78.0   3.1
Carneros Lower (Ranch 81) 9/6/26 1600 82.0   1.7 30   1 47.1   0.8 1.0   0.1 S | 187 6.5   0.7 0.00 0.00 43.6   1.7 83.7   1.9
Max     82.0 54 54.9 11.8 - 18.9 0.00 0.01 51.8 83.7
Avg     76.6 36 47.7 6.8 - 13.1 0.00 - - -
Min     71.3 29 43.1 1.0 - 6.5 0.00 0.00 38.6 73.4